sensor_id;sensor_type;location;lat;lon;timestamp;temperature;humidity
67890;DHT22;54685;52.082;5.426;2023-04-07T00:01:38;8.50;99.90
67890;DHT22;54685;52.082;5.426;2023-04-07T00:04:05;8.50;99.90
67890;DHT22;54685;52.082;5.426;2023-04-07T00:06:32;8.40;99.90
67890;DHT22;54685;52.082;5.426;2023-04-07T00:08:59;8.50;99.90
67890;DHT22;54685;52.082;5.426;2023-04-07T00:11:26;8.50;99.90
67890;DHT22;54685;52.082;5.426;2023-04-07T00:13:52;8.50;99.90
67890;DHT22;54685;52.082;5.426;2023-04-07T00:16:19;8.40;99.90
67890;DHT22;54685;52.082;5.426;2023-04-07T00:18:47;8.40;99.90
67890;DHT22;54685;52.082;5.426;2023-04-07T00:21:13;8.40;99.90
67890;DHT22;54685;52.082;5.426;2023-04-07T00:23:40;8.40;99.90
67890;DHT22;54685;52.082;5.426;2023-04-07T00:26:08;8.40;99.90
67890;DHT22;54685;52.082;5.426;2023-04-07T00:28:36;8.40;99.90
67890;DHT22;54685;52.082;5.426;2023-04-07T00:31:03;8.40;99.90
67890;DHT22;54685;52.082;5.426;2023-04-07T00:33:30;8.30;99.90
67890;DHT22;54685;52.082;5.426;2023-04-07T00:35:57;8.30;99.90
67890;DHT22;54685;52.082;5.426;2023-04-07T00:38:24;8.30;99.90
67890;DHT22;54685;52.082;5.426;2023-04-07T00:40:57;8.30;99.90
67890;DHT22;54685;52.082;5.426;2023-04-07T00:43:25;8.30;99.90
67890;DHT22;54685;52.082;5.426;2023-04-07T00:45:52;8.30;99.90
67890;DHT22;54685;52.082;5.426;2023-04-07T00:48:20;8.30;99.90
67890;DHT22;54685;52.082;5.426;2023-04-07T00:50:47;8.30;99.90
67890;DHT22;54685;52.082;5.426;2023-04-07T00:53:14;8.30;99.90
67890;DHT22;54685;52.082;5.426;2023-04-07T00:55:41;8.30;99.90
67890;DHT22;54685;52.082;5.426;2023-04-07T00:58:08;8.30;99.90
67890;DHT22;54685;52.082;5.426;2023-04-07T01:03:37;8.30;99.90
67890;DHT22;54685;52.082;5.426;2023-04-07T01:06:07;8.20;99.90
67890;DHT22;54685;52.082;5.426;2023-04-07T01:08:48;8.20;99.90
67890;DHT22;54685;52.082;5.426;2023-04-07T01:11:23;8.20;99.90
67890;DHT22;54685;52.082;5.426;2023-04-07T01:13:52;8.30;99.90
67890;DHT22;54685;52.082;5.426;2023-04-07T01:16:51;8.20;99.90
67890;DHT22;54685;52.082;5.426;2023-04-07T01:19:37;8.20;99.90
67890;DHT22;54685;52.082;5.426;2023-04-07T01:22:14;8.20;99.90
67890;DHT22;54685;52.082;5.426;2023-04-07T01:30:34;8.20;99.90
67890;DHT22;54685;52.082;5.426;2023-04-07T01:33:02;8.20;99.90
67890;DHT22;54685;52.082;5.426;2023-04-07T01:35:32;8.20;99.90
67890;DHT22;54685;52.082;5.426;2023-04-07T01:37:59;8.20;99.90
67890;DHT22;54685;52.082;5.426;2023-04-07T01:40:28;8.20;99.90
67890;DHT22;54685;52.082;5.426;2023-04-07T01:42:56;8.20;99.90
67890;DHT22;54685;52.082;5.426;2023-04-07T01:45:23;8.20;99.90
67890;DHT22;54685;52.082;5.426;2023-04-07T01:47:52;8.20;99.90
67890;DHT22;54685;52.082;5.426;2023-04-07T01:50:20;8.20;99.90
67890;DHT22;54685;52.082;5.426;2023-04-07T01:52:47;8.20;99.90
67890;DHT22;54685;52.082;5.426;2023-04-07T01:55:14;8.20;99.90
67890;DHT22;54685;52.082;5.426;2023-04-07T01:57:54;8.20;99.90
67890;DHT22;54685;52.082;5.426;2023-04-07T02:00:21;8.20;99.90
67890;DHT22;54685;52.082;5.426;2023-04-07T02:02:58;8.20;99.90
67890;DHT22;54685;52.082;5.426;2023-04-07T02:05:28;8.20;99.90
67890;DHT22;54685;52.082;5.426;2023-04-07T02:08:00;8.20;99.90
67890;DHT22;54685;52.082;5.426;2023-04-07T02:10:29;8.20;99.90
67890;DHT22;54685;52.082;5.426;2023-04-07T02:12:59;8.30;99.90
67890;DHT22;54685;52.082;5.426;2023-04-07T02:15:29;8.20;99.90
67890;DHT22;54685;52.082;5.426;2023-04-07T02:17:58;8.30;99.90
67890;DHT22;54685;52.082;5.426;2023-04-07T02:20:27;8.20;99.90
67890;DHT22;54685;52.082;5.426;2023-04-07T02:22:55;8.30;99.90
67890;DHT22;54685;52.082;5.426;2023-04-07T02:25:30;8.30;99.90
67890;DHT22;54685;52.082;5.426;2023-04-07T02:27:59;8.20;99.90
67890;DHT22;54685;52.082;5.426;2023-04-07T02:30:27;8.30;99.90
67890;DHT22;54685;52.082;5.426;2023-04-07T02:32:55;8.30;99.90
67890;DHT22;54685;52.082;5.426;2023-04-07T02:35:22;8.20;99.90
67890;DHT22;54685;52.082;5.426;2023-04-07T02:37:49;8.30;99.90
67890;DHT22;54685;52.082;5.426;2023-04-07T02:40:16;8.20;99.90
67890;DHT22;54685;52.082;5.426;2023-04-07T02:42:43;8.20;99.90
67890;DHT22;54685;52.082;5.426;2023-04-07T02:45:10;8.20;99.90
67890;DHT22;54685;52.082;5.426;2023-04-07T02:47:38;8.30;99.90
67890;DHT22;54685;52.082;5.426;2023-04-07T02:50:05;8.30;99.90
67890;DHT22;54685;52.082;5.426;2023-04-07T02:52:34;8.30;99.90
67890;DHT22;54685;52.082;5.426;2023-04-07T02:55:05;8.30;99.90
67890;DHT22;54685;52.082;5.426;2023-04-07T02:57:33;8.30;99.90
67890;DHT22;54685;52.082;5.426;2023-04-07T03:00:03;8.30;99.90
67890;DHT22;54685;52.082;5.426;2023-04-07T03:02:46;8.30;99.90
67890;DHT22;54685;52.082;5.426;2023-04-07T03:05:14;8.30;99.90
67890;DHT22;54685;52.082;5.426;2023-04-07T03:07:41;8.30;99.90
67890;DHT22;54685;52.082;5.426;2023-04-07T03:10:09;8.30;99.90
67890;DHT22;54685;52.082;5.426;2023-04-07T03:12:36;8.30;99.90
67890;DHT22;54685;52.082;5.426;2023-04-07T03:15:03;8.30;99.90
67890;DHT22;54685;52.082;5.426;2023-04-07T03:17:30;8.30;99.90
67890;DHT22;54685;52.082;5.426;2023-04-07T03:19:57;8.30;99.90
67890;DHT22;54685;52.082;5.426;2023-04-07T03:22:25;8.30;99.90
67890;DHT22;54685;52.082;5.426;2023-04-07T03:24:53;8.30;99.90
67890;DHT22;54685;52.082;5.426;2023-04-07T03:27:22;8.30;99.90
67890;DHT22;54685;52.082;5.426;2023-04-07T03:29:49;8.30;99.90
67890;DHT22;54685;52.082;5.426;2023-04-07T03:32:16;8.20;99.90
67890;DHT22;54685;52.082;5.426;2023-04-07T03:34:43;8.20;99.90
67890;DHT22;54685;52.082;5.426;2023-04-07T03:37:12;8.20;99.90
67890;DHT22;54685;52.082;5.426;2023-04-07T03:39:40;8.30;99.90
67890;DHT22;54685;52.082;5.426;2023-04-07T03:42:23;8.30;99.90
67890;DHT22;54685;52.082;5.426;2023-04-07T03:44:56;8.30;99.90
67890;DHT22;54685;52.082;5.426;2023-04-07T03:47:23;8.30;99.90
67890;DHT22;54685;52.082;5.426;2023-04-07T03:49:55;8.20;99.90
67890;DHT22;54685;52.082;5.426;2023-04-07T03:52:22;8.30;99.90
67890;DHT22;54685;52.082;5.426;2023-04-07T03:54:54;8.20;99.90
67890;DHT22;54685;52.082;5.426;2023-04-07T03:57:27;8.20;99.90
67890;DHT22;54685;52.082;5.426;2023-04-07T03:59:54;8.20;99.90
67890;DHT22;54685;52.082;5.426;2023-04-07T04:02:22;8.30;99.90
67890;DHT22;54685;52.082;5.426;2023-04-07T04:04:51;8.20;99.90
67890;DHT22;54685;52.082;5.426;2023-04-07T04:07:20;8.20;99.90
67890;DHT22;54685;52.082;5.426;2023-04-07T04:09:49;8.20;99.90
67890;DHT22;54685;52.082;5.426;2023-04-07T04:12:17;8.20;99.90
67890;DHT22;54685;52.082;5.426;2023-04-07T04:14:55;8.20;99.90
67890;DHT22;54685;52.082;5.426;2023-04-07T04:17:22;8.20;99.90
67890;DHT22;54685;52.082;5.426;2023-04-07T04:19:49;8.20;99.90
67890;DHT22;54685;52.082;5.426;2023-04-07T04:22:22;8.20;99.90
67890;DHT22;54685;52.082;5.426;2023-04-07T04:24:55;8.20;99.90
67890;DHT22;54685;52.082;5.426;2023-04-07T04:27:24;8.20;99.90
67890;DHT22;54685;52.082;5.426;2023-04-07T04:29:58;8.20;99.90
67890;DHT22;54685;52.082;5.426;2023-04-07T04:32:38;8.20;99.90
67890;DHT22;54685;52.082;5.426;2023-04-07T04:35:06;8.20;99.90
67890;DHT22;54685;52.082;5.426;2023-04-07T04:37:41;8.30;99.90
67890;DHT22;54685;52.082;5.426;2023-04-07T04:40:10;8.30;99.90
67890;DHT22;54685;52.082;5.426;2023-04-07T04:42:39;8.20;99.90
67890;DHT22;54685;52.082;5.426;2023-04-07T04:45:08;8.30;99.90
67890;DHT22;54685;52.082;5.426;2023-04-07T04:47:37;8.30;99.90
67890;DHT22;54685;52.082;5.426;2023-04-07T04:50:06;8.30;99.90
67890;DHT22;54685;52.082;5.426;2023-04-07T04:52:35;8.30;99.90
67890;DHT22;54685;52.082;5.426;2023-04-07T04:55:04;8.30;99.90
67890;DHT22;54685;52.082;5.426;2023-04-07T04:57:31;8.30;99.90
67890;DHT22;54685;52.082;5.426;2023-04-07T05:00:01;8.30;99.90
67890;DHT22;54685;52.082;5.426;2023-04-07T05:02:28;8.30;99.90
67890;DHT22;54685;52.082;5.426;2023-04-07T05:04:55;8.30;99.90
67890;DHT22;54685;52.082;5.426;2023-04-07T05:07:26;8.30;99.90
67890;DHT22;54685;52.082;5.426;2023-04-07T05:09:54;8.30;99.90
67890;DHT22;54685;52.082;5.426;2023-04-07T05:12:21;8.20;99.90
67890;DHT22;54685;52.082;5.426;2023-04-07T05:14:55;8.20;99.90
67890;DHT22;54685;52.082;5.426;2023-04-07T05:17:22;8.20;99.90
67890;DHT22;54685;52.082;5.426;2023-04-07T05:19:49;8.30;99.90
67890;DHT22;54685;52.082;5.426;2023-04-07T05:22:27;8.20;99.90
67890;DHT22;54685;52.082;5.426;2023-04-07T05:24:54;8.20;99.90
67890;DHT22;54685;52.082;5.426;2023-04-07T05:27:21;8.20;99.90
67890;DHT22;54685;52.082;5.426;2023-04-07T05:29:51;8.30;99.90
67890;DHT22;54685;52.082;5.426;2023-04-07T05:32:26;8.30;99.90
67890;DHT22;54685;52.082;5.426;2023-04-07T05:34:54;8.30;99.90
67890;DHT22;54685;52.082;5.426;2023-04-07T05:37:25;8.30;99.90
67890;DHT22;54685;52.082;5.426;2023-04-07T05:39:52;8.30;99.90
67890;DHT22;54685;52.082;5.426;2023-04-07T05:42:19;8.30;99.90
67890;DHT22;54685;52.082;5.426;2023-04-07T05:44:50;8.30;99.90
67890;DHT22;54685;52.082;5.426;2023-04-07T05:47:19;8.30;99.90
67890;DHT22;54685;52.082;5.426;2023-04-07T05:49:48;8.30;99.90
67890;DHT22;54685;52.082;5.426;2023-04-07T05:52:15;8.30;99.90
67890;DHT22;54685;52.082;5.426;2023-04-07T05:54:48;8.30;99.90
67890;DHT22;54685;52.082;5.426;2023-04-07T05:57:16;8.30;99.90
67890;DHT22;54685;52.082;5.426;2023-04-07T05:59:44;8.30;99.90
67890;DHT22;54685;52.082;5.426;2023-04-07T06:02:12;8.30;99.90
67890;DHT22;54685;52.082;5.426;2023-04-07T06:04:39;8.30;99.90
67890;DHT22;54685;52.082;5.426;2023-04-07T06:07:09;8.30;99.90
67890;DHT22;54685;52.082;5.426;2023-04-07T06:09:38;8.30;99.90
67890;DHT22;54685;52.082;5.426;2023-04-07T06:12:04;8.30;99.90
67890;DHT22;54685;52.082;5.426;2023-04-07T06:14:32;8.30;99.90
67890;DHT22;54685;52.082;5.426;2023-04-07T06:16:59;8.30;99.90
67890;DHT22;54685;52.082;5.426;2023-04-07T06:19:27;8.30;99.90
67890;DHT22;54685;52.082;5.426;2023-04-07T06:21:54;8.30;99.90
67890;DHT22;54685;52.082;5.426;2023-04-07T06:24:21;8.30;99.90
67890;DHT22;54685;52.082;5.426;2023-04-07T06:26:54;8.30;99.90
67890;DHT22;54685;52.082;5.426;2023-04-07T06:29:22;8.30;99.90
67890;DHT22;54685;52.082;5.426;2023-04-07T06:31:49;8.30;99.90
67890;DHT22;54685;52.082;5.426;2023-04-07T06:34:17;8.30;99.90
67890;DHT22;54685;52.082;5.426;2023-04-07T06:36:44;8.30;99.90
67890;DHT22;54685;52.082;5.426;2023-04-07T06:39:14;8.30;99.90
67890;DHT22;54685;52.082;5.426;2023-04-07T06:41:41;8.40;99.90
67890;DHT22;54685;52.082;5.426;2023-04-07T06:44:09;8.40;99.90
67890;DHT22;54685;52.082;5.426;2023-04-07T06:46:39;8.40;99.90
67890;DHT22;54685;52.082;5.426;2023-04-07T06:49:07;8.50;99.90
67890;DHT22;54685;52.082;5.426;2023-04-07T06:51:34;8.50;99.90
67890;DHT22;54685;52.082;5.426;2023-04-07T06:54:01;8.50;99.90
67890;DHT22;54685;52.082;5.426;2023-04-07T06:56:27;8.50;99.90
67890;DHT22;54685;52.082;5.426;2023-04-07T06:58:57;8.60;99.90
67890;DHT22;54685;52.082;5.426;2023-04-07T07:01:26;8.60;99.90
67890;DHT22;54685;52.082;5.426;2023-04-07T07:03:54;8.60;99.90
67890;DHT22;54685;52.082;5.426;2023-04-07T07:06:21;8.70;99.90
67890;DHT22;54685;52.082;5.426;2023-04-07T07:08:47;8.70;99.90
67890;DHT22;54685;52.082;5.426;2023-04-07T07:11:14;8.70;99.90
67890;DHT22;54685;52.082;5.426;2023-04-07T07:13:41;8.70;99.90
67890;DHT22;54685;52.082;5.426;2023-04-07T07:16:08;8.80;99.90
67890;DHT22;54685;52.082;5.426;2023-04-07T07:18:35;8.80;99.90
67890;DHT22;54685;52.082;5.426;2023-04-07T07:21:02;8.80;99.90
67890;DHT22;54685;52.082;5.426;2023-04-07T07:23:29;8.90;99.90
67890;DHT22;54685;52.082;5.426;2023-04-07T07:25:56;8.90;99.90
67890;DHT22;54685;52.082;5.426;2023-04-07T07:28:23;8.90;99.90
67890;DHT22;54685;52.082;5.426;2023-04-07T07:30:50;8.90;99.90
67890;DHT22;54685;52.082;5.426;2023-04-07T07:33:18;9.00;99.90
67890;DHT22;54685;52.082;5.426;2023-04-07T07:35:45;9.00;99.90
67890;DHT22;54685;52.082;5.426;2023-04-07T07:38:12;9.00;99.90
67890;DHT22;54685;52.082;5.426;2023-04-07T07:40:39;9.00;99.90
67890;DHT22;54685;52.082;5.426;2023-04-07T07:43:06;9.10;99.90
67890;DHT22;54685;52.082;5.426;2023-04-07T07:45:33;9.10;99.90
67890;DHT22;54685;52.082;5.426;2023-04-07T07:47:59;9.10;99.90
67890;DHT22;54685;52.082;5.426;2023-04-07T07:50:27;9.10;99.90
67890;DHT22;54685;52.082;5.426;2023-04-07T07:52:53;9.10;99.90
67890;DHT22;54685;52.082;5.426;2023-04-07T07:55:20;9.10;99.90
67890;DHT22;54685;52.082;5.426;2023-04-07T07:57:47;9.00;99.90
67890;DHT22;54685;52.082;5.426;2023-04-07T08:00:14;9.00;99.90
67890;DHT22;54685;52.082;5.426;2023-04-07T08:02:41;9.10;99.90
67890;DHT22;54685;52.082;5.426;2023-04-07T08:05:08;9.00;99.90
67890;DHT22;54685;52.082;5.426;2023-04-07T08:07:35;9.10;99.90
67890;DHT22;54685;52.082;5.426;2023-04-07T08:10:03;9.10;99.90
67890;DHT22;54685;52.082;5.426;2023-04-07T08:12:30;9.10;99.90
67890;DHT22;54685;52.082;5.426;2023-04-07T08:14:57;9.20;99.90
67890;DHT22;54685;52.082;5.426;2023-04-07T08:17:28;9.20;99.90
67890;DHT22;54685;52.082;5.426;2023-04-07T08:19:55;9.20;99.90
67890;DHT22;54685;52.082;5.426;2023-04-07T08:22:21;9.20;99.90
67890;DHT22;54685;52.082;5.426;2023-04-07T08:24:48;9.20;99.90
67890;DHT22;54685;52.082;5.426;2023-04-07T08:27:15;9.20;99.90
67890;DHT22;54685;52.082;5.426;2023-04-07T08:29:42;9.20;99.90
67890;DHT22;54685;52.082;5.426;2023-04-07T08:32:08;9.30;99.90
67890;DHT22;54685;52.082;5.426;2023-04-07T08:34:35;9.40;99.90
67890;DHT22;54685;52.082;5.426;2023-04-07T08:37:02;9.50;99.90
67890;DHT22;54685;52.082;5.426;2023-04-07T08:39:29;9.60;99.90
67890;DHT22;54685;52.082;5.426;2023-04-07T08:41:57;9.80;99.90
67890;DHT22;54685;52.082;5.426;2023-04-07T08:44:24;9.80;99.90
67890;DHT22;54685;52.082;5.426;2023-04-07T08:46:54;9.90;99.90
67890;DHT22;54685;52.082;5.426;2023-04-07T08:49:23;9.90;99.90
67890;DHT22;54685;52.082;5.426;2023-04-07T08:51:53;10.00;99.90
67890;DHT22;54685;52.082;5.426;2023-04-07T08:54:22;10.00;99.90
67890;DHT22;54685;52.082;5.426;2023-04-07T08:56:50;10.00;99.90
67890;DHT22;54685;52.082;5.426;2023-04-07T08:59:20;10.10;99.90
67890;DHT22;54685;52.082;5.426;2023-04-07T09:01:53;10.00;99.90
67890;DHT22;54685;52.082;5.426;2023-04-07T09:04:20;10.00;99.90
67890;DHT22;54685;52.082;5.426;2023-04-07T09:06:48;10.00;99.90
67890;DHT22;54685;52.082;5.426;2023-04-07T09:09:15;9.90;99.90
67890;DHT22;54685;52.082;5.426;2023-04-07T09:11:42;9.90;99.90
67890;DHT22;54685;52.082;5.426;2023-04-07T09:14:09;9.90;99.90
67890;DHT22;54685;52.082;5.426;2023-04-07T09:16:36;9.80;99.90
67890;DHT22;54685;52.082;5.426;2023-04-07T09:19:03;9.90;99.90
67890;DHT22;54685;52.082;5.426;2023-04-07T09:21:51;9.90;99.90
67890;DHT22;54685;52.082;5.426;2023-04-07T09:24:23;10.00;99.90
67890;DHT22;54685;52.082;5.426;2023-04-07T09:26:54;10.00;99.90
67890;DHT22;54685;52.082;5.426;2023-04-07T09:29:33;10.00;99.90
67890;DHT22;54685;52.082;5.426;2023-04-07T09:32:00;10.00;99.90
67890;DHT22;54685;52.082;5.426;2023-04-07T09:34:30;10.00;99.90
67890;DHT22;54685;52.082;5.426;2023-04-07T09:36:57;10.10;99.90
67890;DHT22;54685;52.082;5.426;2023-04-07T09:39:25;10.10;99.90
67890;DHT22;54685;52.082;5.426;2023-04-07T09:41:52;10.00;99.90
67890;DHT22;54685;52.082;5.426;2023-04-07T09:44:20;10.00;99.90
67890;DHT22;54685;52.082;5.426;2023-04-07T09:46:57;10.00;99.90
67890;DHT22;54685;52.082;5.426;2023-04-07T09:49:24;10.00;99.90
67890;DHT22;54685;52.082;5.426;2023-04-07T09:52:01;10.00;99.90
67890;DHT22;54685;52.082;5.426;2023-04-07T09:54:37;9.90;99.90
67890;DHT22;54685;52.082;5.426;2023-04-07T09:57:06;9.90;99.90
67890;DHT22;54685;52.082;5.426;2023-04-07T09:59:35;10.00;99.90
67890;DHT22;54685;52.082;5.426;2023-04-07T10:02:03;10.00;99.90
67890;DHT22;54685;52.082;5.426;2023-04-07T10:04:31;10.10;99.90
67890;DHT22;54685;52.082;5.426;2023-04-07T10:06:58;10.00;99.90
67890;DHT22;54685;52.082;5.426;2023-04-07T10:09:27;10.00;99.90
67890;DHT22;54685;52.082;5.426;2023-04-07T10:11:55;10.00;99.90
67890;DHT22;54685;52.082;5.426;2023-04-07T10:14:30;10.10;99.90
67890;DHT22;54685;52.082;5.426;2023-04-07T10:17:00;10.10;99.90
67890;DHT22;54685;52.082;5.426;2023-04-07T10:19:31;10.10;99.90
67890;DHT22;54685;52.082;5.426;2023-04-07T10:22:01;10.10;99.90
67890;DHT22;54685;52.082;5.426;2023-04-07T10:24:37;10.10;99.90
67890;DHT22;54685;52.082;5.426;2023-04-07T10:27:13;10.10;99.90
67890;DHT22;54685;52.082;5.426;2023-04-07T10:29:45;10.10;99.90
67890;DHT22;54685;52.082;5.426;2023-04-07T10:32:14;10.10;99.90
67890;DHT22;54685;52.082;5.426;2023-04-07T10:35:04;10.10;99.90
67890;DHT22;54685;52.082;5.426;2023-04-07T10:37:30;10.10;99.90
67890;DHT22;54685;52.082;5.426;2023-04-07T10:42:45;10.30;99.90
67890;DHT22;54685;52.082;5.426;2023-04-07T10:45:13;10.40;99.90
67890;DHT22;54685;52.082;5.426;2023-04-07T10:50:26;10.40;99.90
67890;DHT22;54685;52.082;5.426;2023-04-07T10:53:10;10.40;99.90
67890;DHT22;54685;52.082;5.426;2023-04-07T10:55:42;10.40;99.90
67890;DHT22;54685;52.082;5.426;2023-04-07T10:58:14;10.30;99.90
67890;DHT22;54685;52.082;5.426;2023-04-07T11:03:36;10.20;99.90
67890;DHT22;54685;52.082;5.426;2023-04-07T11:06:04;10.30;99.90
67890;DHT22;54685;52.082;5.426;2023-04-07T11:08:39;10.20;99.90
67890;DHT22;54685;52.082;5.426;2023-04-07T11:11:10;10.30;99.90
67890;DHT22;54685;52.082;5.426;2023-04-07T11:13:43;10.30;99.90
67890;DHT22;54685;52.082;5.426;2023-04-07T11:16:13;10.30;99.90
67890;DHT22;54685;52.082;5.426;2023-04-07T11:18:42;10.40;99.90
67890;DHT22;54685;52.082;5.426;2023-04-07T11:21:09;10.40;99.90
67890;DHT22;54685;52.082;5.426;2023-04-07T11:23:40;10.40;99.90
67890;DHT22;54685;52.082;5.426;2023-04-07T11:26:09;10.40;99.90
67890;DHT22;54685;52.082;5.426;2023-04-07T11:29:05;10.40;99.90
67890;DHT22;54685;52.082;5.426;2023-04-07T11:31:32;10.40;99.90
67890;DHT22;54685;52.082;5.426;2023-04-07T11:34:06;10.30;99.90
67890;DHT22;54685;52.082;5.426;2023-04-07T11:36:40;10.30;99.90
67890;DHT22;54685;52.082;5.426;2023-04-07T11:39:27;10.30;99.90
67890;DHT22;54685;52.082;5.426;2023-04-07T11:41:56;10.30;99.90
67890;DHT22;54685;52.082;5.426;2023-04-07T11:44:23;10.30;99.90
67890;DHT22;54685;52.082;5.426;2023-04-07T11:46:59;10.30;99.90
67890;DHT22;54685;52.082;5.426;2023-04-07T11:49:29;10.30;99.90
67890;DHT22;54685;52.082;5.426;2023-04-07T11:52:04;10.40;99.90
67890;DHT22;54685;52.082;5.426;2023-04-07T11:54:43;10.40;99.90
67890;DHT22;54685;52.082;5.426;2023-04-07T11:57:09;10.40;99.90
67890;DHT22;54685;52.082;5.426;2023-04-07T11:59:39;10.50;99.90
67890;DHT22;54685;52.082;5.426;2023-04-07T12:02:07;10.50;99.90
67890;DHT22;54685;52.082;5.426;2023-04-07T12:04:34;10.60;99.90
67890;DHT22;54685;52.082;5.426;2023-04-07T12:07:07;10.60;99.90
67890;DHT22;54685;52.082;5.426;2023-04-07T12:09:34;10.60;99.90
67890;DHT22;54685;52.082;5.426;2023-04-07T12:12:02;10.60;99.90
67890;DHT22;54685;52.082;5.426;2023-04-07T12:14:31;10.60;99.90
67890;DHT22;54685;52.082;5.426;2023-04-07T12:16:58;10.70;99.90
67890;DHT22;54685;52.082;5.426;2023-04-07T12:19:28;10.70;99.90
67890;DHT22;54685;52.082;5.426;2023-04-07T12:21:55;10.70;99.90
67890;DHT22;54685;52.082;5.426;2023-04-07T12:24:22;10.70;99.90
67890;DHT22;54685;52.082;5.426;2023-04-07T12:26:49;10.70;99.90
67890;DHT22;54685;52.082;5.426;2023-04-07T12:29:16;10.70;99.90
67890;DHT22;54685;52.082;5.426;2023-04-07T12:31:45;10.70;99.90
67890;DHT22;54685;52.082;5.426;2023-04-07T12:34:15;10.70;99.90
67890;DHT22;54685;52.082;5.426;2023-04-07T12:36:45;10.70;99.90
67890;DHT22;54685;52.082;5.426;2023-04-07T12:39:12;10.70;99.90
67890;DHT22;54685;52.082;5.426;2023-04-07T12:41:39;10.70;99.90
67890;DHT22;54685;52.082;5.426;2023-04-07T12:44:06;10.70;99.90
67890;DHT22;54685;52.082;5.426;2023-04-07T12:46:33;10.80;99.90
67890;DHT22;54685;52.082;5.426;2023-04-07T12:49:20;10.90;99.90
67890;DHT22;54685;52.082;5.426;2023-04-07T12:51:48;10.90;99.90
67890;DHT22;54685;52.082;5.426;2023-04-07T12:54:14;11.00;99.90
67890;DHT22;54685;52.082;5.426;2023-04-07T12:56:41;11.10;99.90
67890;DHT22;54685;52.082;5.426;2023-04-07T12:59:08;11.10;99.90
67890;DHT22;54685;52.082;5.426;2023-04-07T13:01:35;11.10;99.90
67890;DHT22;54685;52.082;5.426;2023-04-07T13:04:02;11.10;99.90
67890;DHT22;54685;52.082;5.426;2023-04-07T13:06:29;11.10;99.90
67890;DHT22;54685;52.082;5.426;2023-04-07T13:08:57;11.10;99.90
67890;DHT22;54685;52.082;5.426;2023-04-07T13:11:24;11.10;99.90
67890;DHT22;54685;52.082;5.426;2023-04-07T13:13:51;11.10;99.90
67890;DHT22;54685;52.082;5.426;2023-04-07T13:16:21;11.00;99.90
67890;DHT22;54685;52.082;5.426;2023-04-07T13:18:47;10.90;99.90
67890;DHT22;54685;52.082;5.426;2023-04-07T13:21:14;10.90;99.90
67890;DHT22;54685;52.082;5.426;2023-04-07T13:23:45;10.80;99.90
67890;DHT22;54685;52.082;5.426;2023-04-07T13:26:12;10.90;99.90
67890;DHT22;54685;52.082;5.426;2023-04-07T13:28:38;10.90;99.90
67890;DHT22;54685;52.082;5.426;2023-04-07T13:31:05;10.90;99.90
67890;DHT22;54685;52.082;5.426;2023-04-07T13:33:33;10.90;99.90
67890;DHT22;54685;52.082;5.426;2023-04-07T13:36:00;10.90;99.90
67890;DHT22;54685;52.082;5.426;2023-04-07T13:38:27;10.90;99.90
67890;DHT22;54685;52.082;5.426;2023-04-07T13:40:54;10.90;99.90
67890;DHT22;54685;52.082;5.426;2023-04-07T13:43:21;10.90;99.90
67890;DHT22;54685;52.082;5.426;2023-04-07T13:45:48;10.90;99.90
67890;DHT22;54685;52.082;5.426;2023-04-07T13:48:15;10.90;99.90
67890;DHT22;54685;52.082;5.426;2023-04-07T13:50:42;10.90;99.90
67890;DHT22;54685;52.082;5.426;2023-04-07T13:53:09;10.90;99.90
67890;DHT22;54685;52.082;5.426;2023-04-07T13:55:37;10.90;99.90
67890;DHT22;54685;52.082;5.426;2023-04-07T13:58:04;10.90;99.90
67890;DHT22;54685;52.082;5.426;2023-04-07T14:00:31;10.90;99.90
67890;DHT22;54685;52.082;5.426;2023-04-07T14:02:59;10.90;99.90
67890;DHT22;54685;52.082;5.426;2023-04-07T14:05:26;10.80;99.90
67890;DHT22;54685;52.082;5.426;2023-04-07T14:07:53;10.80;99.90
67890;DHT22;54685;52.082;5.426;2023-04-07T14:10:20;10.80;99.90
67890;DHT22;54685;52.082;5.426;2023-04-07T14:12:47;10.80;99.90
67890;DHT22;54685;52.082;5.426;2023-04-07T14:15:14;10.80;99.90
67890;DHT22;54685;52.082;5.426;2023-04-07T14:17:49;10.80;99.90
67890;DHT22;54685;52.082;5.426;2023-04-07T14:20:16;10.80;99.90
67890;DHT22;54685;52.082;5.426;2023-04-07T14:22:43;10.80;99.90
67890;DHT22;54685;52.082;5.426;2023-04-07T14:25:10;10.90;99.90
67890;DHT22;54685;52.082;5.426;2023-04-07T14:27:37;10.90;99.90
67890;DHT22;54685;52.082;5.426;2023-04-07T14:30:04;10.80;99.90
67890;DHT22;54685;52.082;5.426;2023-04-07T14:32:32;10.80;99.90
67890;DHT22;54685;52.082;5.426;2023-04-07T14:34:59;10.80;99.90
67890;DHT22;54685;52.082;5.426;2023-04-07T14:37:27;10.90;99.90
67890;DHT22;54685;52.082;5.426;2023-04-07T14:39:54;10.90;99.90
67890;DHT22;54685;52.082;5.426;2023-04-07T14:42:24;10.90;99.90
67890;DHT22;54685;52.082;5.426;2023-04-07T14:44:51;10.90;99.90
67890;DHT22;54685;52.082;5.426;2023-04-07T14:47:18;10.90;99.90
67890;DHT22;54685;52.082;5.426;2023-04-07T14:49:45;10.80;99.90
67890;DHT22;54685;52.082;5.426;2023-04-07T14:52:12;10.80;99.90
67890;DHT22;54685;52.082;5.426;2023-04-07T14:54:39;10.70;99.90
67890;DHT22;54685;52.082;5.426;2023-04-07T14:57:18;10.80;99.90
67890;DHT22;54685;52.082;5.426;2023-04-07T14:59:46;10.70;99.90
67890;DHT22;54685;52.082;5.426;2023-04-07T15:02:13;10.70;99.90
67890;DHT22;54685;52.082;5.426;2023-04-07T15:04:40;10.70;99.90
67890;DHT22;54685;52.082;5.426;2023-04-07T15:07:07;10.70;99.90
67890;DHT22;54685;52.082;5.426;2023-04-07T15:09:34;10.70;99.90
67890;DHT22;54685;52.082;5.426;2023-04-07T15:12:01;10.70;99.90
67890;DHT22;54685;52.082;5.426;2023-04-07T15:14:29;10.70;99.90
67890;DHT22;54685;52.082;5.426;2023-04-07T15:16:56;10.60;99.90
67890;DHT22;54685;52.082;5.426;2023-04-07T15:19:23;10.60;99.90
67890;DHT22;54685;52.082;5.426;2023-04-07T15:21:50;10.60;99.90
67890;DHT22;54685;52.082;5.426;2023-04-07T15:24:16;10.50;99.90
67890;DHT22;54685;52.082;5.426;2023-04-07T15:26:45;10.50;99.90
67890;DHT22;54685;52.082;5.426;2023-04-07T15:29:11;10.50;99.90
67890;DHT22;54685;52.082;5.426;2023-04-07T15:31:38;10.40;99.90
67890;DHT22;54685;52.082;5.426;2023-04-07T15:34:05;10.40;99.90
67890;DHT22;54685;52.082;5.426;2023-04-07T15:36:34;10.40;99.90
67890;DHT22;54685;52.082;5.426;2023-04-07T15:39:02;10.40;99.90
67890;DHT22;54685;52.082;5.426;2023-04-07T15:41:30;10.40;99.90
67890;DHT22;54685;52.082;5.426;2023-04-07T15:44:01;10.40;99.90
67890;DHT22;54685;52.082;5.426;2023-04-07T15:46:28;10.30;99.90
67890;DHT22;54685;52.082;5.426;2023-04-07T15:48:58;10.30;99.90
67890;DHT22;54685;52.082;5.426;2023-04-07T15:51:25;10.30;99.90
67890;DHT22;54685;52.082;5.426;2023-04-07T15:53:53;10.20;99.90
67890;DHT22;54685;52.082;5.426;2023-04-07T15:56:20;10.20;99.90
67890;DHT22;54685;52.082;5.426;2023-04-07T15:58:50;10.10;99.90
67890;DHT22;54685;52.082;5.426;2023-04-07T16:01:16;10.10;99.90
67890;DHT22;54685;52.082;5.426;2023-04-07T16:03:43;10.00;99.90
67890;DHT22;54685;52.082;5.426;2023-04-07T16:06:10;10.00;99.90
67890;DHT22;54685;52.082;5.426;2023-04-07T16:08:37;10.00;99.90